createdAt,value
2018-12-09T00:00:04.953Z,4.33
2018-12-09T00:02:33.222Z,3.10
2018-12-09T00:05:01.340Z,3.55
2018-12-09T00:07:29.395Z,3.10
2018-12-09T00:09:57.486Z,3.37
2018-12-09T00:12:25.602Z,4.27
2018-12-09T00:14:53.663Z,3.60
2018-12-09T00:17:21.733Z,3.53
2018-12-09T00:19:50.055Z,4.17
2018-12-09T00:22:18.158Z,3.20
2018-12-09T00:24:46.346Z,4.30
2018-12-09T00:27:14.464Z,3.62
2018-12-09T00:29:42.562Z,3.30
2018-12-09T00:32:10.655Z,3.10
2018-12-09T00:34:39.351Z,3.45
2018-12-09T00:37:07.455Z,4.73
2018-12-09T00:39:35.549Z,4.57
2018-12-09T00:42:03.607Z,3.80
2018-12-09T00:44:31.666Z,3.83
2018-12-09T00:46:59.731Z,4.43
2018-12-09T00:49:27.794Z,4.93
2018-12-09T00:51:55.845Z,3.17
2018-12-09T00:54:23.916Z,4.10
2018-12-09T00:56:51.970Z,4.00
2018-12-09T00:59:20.030Z,3.87
2018-12-09T01:01:48.194Z,3.50
2018-12-09T01:04:17.411Z,3.83
2018-12-09T01:06:45.638Z,4.20
2018-12-09T01:09:13.711Z,4.83
2018-12-09T01:11:41.806Z,4.23
2018-12-09T01:14:09.921Z,4.07
2018-12-09T01:16:38.058Z,4.40
2018-12-09T01:19:06.146Z,4.20
2018-12-09T01:21:34.251Z,3.50
2018-12-09T01:24:02.321Z,3.90
2018-12-09T01:26:30.702Z,3.47
2018-12-09T01:28:58.919Z,3.47
2018-12-09T01:31:26.993Z,3.65
2018-12-09T01:33:55.133Z,3.87
2018-12-09T01:36:23.467Z,3.67
2018-12-09T01:38:52.397Z,3.27
2018-12-09T01:41:20.542Z,3.63
2018-12-09T01:43:48.705Z,3.73
2018-12-09T01:46:16.895Z,3.23
2018-12-09T01:48:45.386Z,3.45
2018-12-09T01:51:13.537Z,3.53
2018-12-09T01:54:09.739Z,3.50
2018-12-09T01:56:39.481Z,3.90
2018-12-09T01:59:07.686Z,3.27
2018-12-09T02:01:35.902Z,3.10
2018-12-09T02:04:04.126Z,3.07
2018-12-09T02:06:32.752Z,3.40
2018-12-09T02:09:00.853Z,3.17
2018-12-09T02:11:29.047Z,3.77
2018-12-09T02:13:57.237Z,3.80
2018-12-09T02:16:25.450Z,3.93
2018-12-09T02:19:04.318Z,3.67
2018-12-09T02:21:32.913Z,4.35
2018-12-09T02:24:01.285Z,3.80
2018-12-09T02:26:29.466Z,3.90
2018-12-09T02:28:57.623Z,4.17
2018-12-09T02:31:25.791Z,3.50
2018-12-09T02:33:54.027Z,3.60
2018-12-09T02:36:22.251Z,4.00
2018-12-09T02:38:51.234Z,4.90
2018-12-09T02:41:19.465Z,3.57
2018-12-09T02:43:47.635Z,3.80
2018-12-09T02:46:15.788Z,3.80
2018-12-09T02:48:43.978Z,5.20
2018-12-09T02:51:12.153Z,4.44
2018-12-09T02:53:40.363Z,4.77
2018-12-09T02:56:08.743Z,4.07
2018-12-09T02:58:37.282Z,5.40
2018-12-09T03:01:06.048Z,4.87
2018-12-09T03:03:34.258Z,4.03
2018-12-09T03:06:03.233Z,4.23
2018-12-09T03:08:31.352Z,4.23
2018-12-09T03:10:59.510Z,3.60
2018-12-09T03:13:27.659Z,4.17
2018-12-09T03:15:55.754Z,4.80
2018-12-09T03:18:23.896Z,3.85
2018-12-09T03:20:52.110Z,3.53
2018-12-09T03:23:20.560Z,3.77
2018-12-09T03:25:48.741Z,4.07
2018-12-09T03:28:16.929Z,3.20
2018-12-09T03:30:45.165Z,3.40
2018-12-09T03:33:13.664Z,3.22
2018-12-09T03:35:42.037Z,2.77
2018-12-09T03:38:10.226Z,3.40
2018-12-09T03:40:38.482Z,3.07
2018-12-09T03:43:06.685Z,3.13
2018-12-09T03:45:34.867Z,3.47
2018-12-09T03:48:03.051Z,2.93
2018-12-09T03:50:31.258Z,3.63
2018-12-09T03:52:59.417Z,3.00
2018-12-09T03:55:27.600Z,2.45
2018-12-09T03:57:55.684Z,2.50
2018-12-09T04:00:23.897Z,2.57
2018-12-09T04:02:53.066Z,3.32
2018-12-09T04:05:21.402Z,3.43
2018-12-09T04:07:49.605Z,3.00
2018-12-09T04:10:18.089Z,3.40
2018-12-09T04:12:46.270Z,3.73
2018-12-09T04:15:14.514Z,3.57
2018-12-09T04:17:42.666Z,3.40
2018-12-09T04:20:10.803Z,3.57
2018-12-09T04:22:39.157Z,4.05
2018-12-09T04:25:09.406Z,4.37
2018-12-09T04:27:37.472Z,4.03
2018-12-09T04:30:06.328Z,3.47
2018-12-09T04:32:34.472Z,3.60
2018-12-09T04:35:02.622Z,3.73
2018-12-09T04:37:30.768Z,3.83
2018-12-09T04:39:58.926Z,3.37
2018-12-09T04:42:27.077Z,3.77
2018-12-09T04:44:55.250Z,3.60
2018-12-09T04:47:24.326Z,3.47
2018-12-09T04:49:52.458Z,3.70
2018-12-09T04:52:20.702Z,3.30
2018-12-09T04:54:48.856Z,3.62
2018-12-09T04:57:17.299Z,5.00
2018-12-09T04:59:47.766Z,4.03
2018-12-09T05:02:16.742Z,3.47
2018-12-09T05:04:44.883Z,3.67
2018-12-09T05:07:13.090Z,3.58
2018-12-09T05:09:41.283Z,3.83
2018-12-09T05:12:10.039Z,3.52
2018-12-09T05:14:38.187Z,2.87
2018-12-09T05:17:06.478Z,3.77
2018-12-09T05:19:34.630Z,4.03
2018-12-09T05:22:02.770Z,3.17
2018-12-09T05:24:30.910Z,4.13
2018-12-09T05:26:59.053Z,4.47
2018-12-09T05:29:27.194Z,3.45
2018-12-09T05:31:55.338Z,2.70
2018-12-09T05:34:23.433Z,3.87
2018-12-09T05:36:51.790Z,3.60
2018-12-09T05:39:19.986Z,3.07
2018-12-09T05:41:48.318Z,3.03
2018-12-09T05:44:16.970Z,3.47
2018-12-09T05:46:45.024Z,2.90
2018-12-09T05:49:13.178Z,4.03
2018-12-09T05:51:41.346Z,3.37
2018-12-09T05:54:09.494Z,2.90
2018-12-09T05:56:38.047Z,3.20
2018-12-09T05:59:06.257Z,2.80
2018-12-09T06:01:34.430Z,4.78
2018-12-09T06:04:02.614Z,3.00
2018-12-09T06:06:30.843Z,2.60
2018-12-09T06:08:59.210Z,2.43
2018-12-09T06:11:27.414Z,3.30
2018-12-09T06:13:55.582Z,3.27
2018-12-09T06:16:23.762Z,3.10
2018-12-09T06:18:51.906Z,5.73
2018-12-09T06:21:20.161Z,3.00
2018-12-09T06:23:48.294Z,3.80
2018-12-09T06:26:16.456Z,3.10
2018-12-09T06:28:44.594Z,2.67
2018-12-09T06:31:12.778Z,2.52
2018-12-09T06:33:41.390Z,3.20
2018-12-09T06:36:09.547Z,3.10
2018-12-09T06:38:38.107Z,3.52
2018-12-09T06:41:06.279Z,2.90
2018-12-09T06:43:34.362Z,2.37
2018-12-09T06:46:02.494Z,2.60
2018-12-09T06:48:30.647Z,2.50
2018-12-09T06:50:58.781Z,2.90
2018-12-09T06:53:26.852Z,3.43
2018-12-09T06:55:55.014Z,3.07
2018-12-09T06:58:23.294Z,2.70
2018-12-09T07:00:51.507Z,2.67
2018-12-09T07:03:19.594Z,3.00
2018-12-09T07:05:47.736Z,2.77
2018-12-09T07:08:15.929Z,2.40
2018-12-09T07:10:44.262Z,3.03
2018-12-09T07:13:12.426Z,2.22
2018-12-09T07:15:40.562Z,2.20
2018-12-09T07:18:08.967Z,3.33
2018-12-09T07:20:37.143Z,2.50
2018-12-09T07:23:05.514Z,2.20
2018-12-09T07:25:33.579Z,2.23
2018-12-09T07:28:01.742Z,3.27
2018-12-09T07:30:29.882Z,2.87
2018-12-09T07:32:58.026Z,3.07
2018-12-09T07:35:26.468Z,2.92
2018-12-09T07:37:54.646Z,2.35
2018-12-09T07:40:22.723Z,3.07
2018-12-09T07:42:50.778Z,3.17
2018-12-09T07:45:18.947Z,3.30
2018-12-09T07:47:47.389Z,3.10
2018-12-09T07:50:15.575Z,3.50
2018-12-09T07:52:43.734Z,3.90
2018-12-09T07:55:11.805Z,4.10
2018-12-09T07:57:39.886Z,2.97
2018-12-09T08:00:09.033Z,2.53
2018-12-09T08:02:37.081Z,2.87
2018-12-09T08:05:06.938Z,3.60
2018-12-09T08:07:35.026Z,3.37
2018-12-09T08:10:03.515Z,3.10
2018-12-09T08:12:31.575Z,3.23
2018-12-09T08:14:59.666Z,2.93
2018-12-09T08:17:27.731Z,3.00
2018-12-09T08:19:56.450Z,3.83
2018-12-09T08:22:24.572Z,3.43
2018-12-09T08:24:52.631Z,3.83
2018-12-09T08:27:20.721Z,2.50
2018-12-09T08:29:48.787Z,3.57
2018-12-09T08:32:16.878Z,3.03
2018-12-09T08:34:44.935Z,3.07
2018-12-09T08:37:13.018Z,3.87
2018-12-09T08:39:41.800Z,3.30
2018-12-09T08:42:09.959Z,3.35
2018-12-09T08:44:38.071Z,3.83
2018-12-09T08:47:06.126Z,2.80
2018-12-09T08:49:34.226Z,3.00
2018-12-09T08:52:02.333Z,3.80
2018-12-09T08:54:30.474Z,3.15
2018-12-09T08:56:58.562Z,3.20
2018-12-09T08:59:26.650Z,2.90
2018-12-09T09:01:54.774Z,3.10
2018-12-09T09:04:22.817Z,3.70
2018-12-09T09:06:50.922Z,3.50
2018-12-09T09:09:18.980Z,3.03
2018-12-09T09:11:47.047Z,3.70
2018-12-09T09:14:15.261Z,2.63
2018-12-09T09:16:43.638Z,3.02
2018-12-09T09:19:11.771Z,2.67
2018-12-09T09:21:39.871Z,3.23
2018-12-09T09:24:07.932Z,3.10
2018-12-09T09:26:36.000Z,2.92
2018-12-09T09:29:04.146Z,3.63
2018-12-09T09:31:32.234Z,2.87
2018-12-09T09:34:00.295Z,3.37
2018-12-09T09:36:28.563Z,3.13
2018-12-09T09:38:56.659Z,3.17
2018-12-09T09:41:25.015Z,2.87
2018-12-09T09:43:53.091Z,3.43
2018-12-09T09:46:21.242Z,3.23
2018-12-09T09:48:49.335Z,2.62
2018-12-09T09:51:17.444Z,2.47
2018-12-09T09:53:45.511Z,2.70
2018-12-09T09:56:13.573Z,2.73
2018-12-09T09:58:41.739Z,2.20
2018-12-09T10:01:09.805Z,2.40
2018-12-09T10:03:37.898Z,2.80
2018-12-09T10:06:06.003Z,2.00
2018-12-09T10:08:34.059Z,1.72
2018-12-09T10:11:02.114Z,1.57
2018-12-09T10:13:30.250Z,0.90
2018-12-09T10:15:58.339Z,0.97
2018-12-09T10:18:26.397Z,1.03
2018-12-09T10:20:54.514Z,0.80
2018-12-09T10:23:22.568Z,0.60
2018-12-09T10:25:50.625Z,1.00
2018-12-09T10:28:18.686Z,0.63
2018-12-09T10:30:47.265Z,1.00
2018-12-09T10:33:16.196Z,0.85
2018-12-09T10:35:44.276Z,1.10
2018-12-09T10:38:12.326Z,1.30
2018-12-09T10:40:40.378Z,1.50
2018-12-09T10:43:08.515Z,1.13
2018-12-09T10:45:36.613Z,0.80
2018-12-09T10:48:04.751Z,0.67
2018-12-09T10:50:32.809Z,0.87
2018-12-09T10:53:00.867Z,0.80
2018-12-09T10:55:28.968Z,1.10
2018-12-09T10:57:57.087Z,1.00
2018-12-09T11:00:30.679Z,1.20
2018-12-09T11:02:58.943Z,1.40
2018-12-09T11:05:27.080Z,1.10
2018-12-09T11:07:55.139Z,1.50
2018-12-09T11:10:23.190Z,1.40
2018-12-09T11:12:51.247Z,1.53
2018-12-09T11:15:19.299Z,1.40
2018-12-09T11:17:47.362Z,1.57
2018-12-09T11:20:15.408Z,2.23
2018-12-09T11:22:43.499Z,2.27
2018-12-09T11:25:12.036Z,2.23
2018-12-09T11:27:40.102Z,2.10
2018-12-09T11:30:08.494Z,1.90
2018-12-09T11:32:36.598Z,2.40
2018-12-09T11:35:05.433Z,1.93
2018-12-09T11:37:33.494Z,1.90
2018-12-09T11:40:01.574Z,2.07
2018-12-09T11:42:29.730Z,1.93
2018-12-09T11:44:57.858Z,2.63
2018-12-09T11:47:25.948Z,2.27
2018-12-09T11:49:54.047Z,2.10
2018-12-09T11:52:22.186Z,1.67
2018-12-09T11:54:51.161Z,2.27
2018-12-09T11:57:19.385Z,2.27
2018-12-09T11:59:51.549Z,2.93
2018-12-09T12:02:41.300Z,2.80
2018-12-09T12:05:10.323Z,3.00
2018-12-09T12:07:38.574Z,2.20
2018-12-09T12:10:07.355Z,2.50
2018-12-09T12:12:36.272Z,2.30
2018-12-09T12:15:05.854Z,2.50
2018-12-09T12:17:34.303Z,2.50
2018-12-09T12:20:02.499Z,1.97
2018-12-09T12:22:30.714Z,1.37
2018-12-09T12:24:58.796Z,2.00
2018-12-09T12:27:27.231Z,1.90
2018-12-09T12:29:55.352Z,4.33
2018-12-09T12:32:23.455Z,5.53
2018-12-09T12:34:51.559Z,3.80
2018-12-09T12:37:19.767Z,2.10
2018-12-09T12:39:48.001Z,2.10
2018-12-09T12:42:16.107Z,1.70
2018-12-09T12:44:44.516Z,2.02
2018-12-09T12:47:13.295Z,1.80
2018-12-09T12:49:41.479Z,1.90
2018-12-09T12:52:09.731Z,1.60
2018-12-09T12:54:38.829Z,1.60
2018-12-09T12:57:07.093Z,1.72
2018-12-09T12:59:35.196Z,2.15
2018-12-09T13:02:03.279Z,2.33
2018-12-09T13:04:31.520Z,2.77
2018-12-09T13:07:01.201Z,2.27
2018-12-09T13:09:31.369Z,3.73
2018-12-09T13:11:59.546Z,2.87
2018-12-09T13:14:27.789Z,2.70
2018-12-09T13:16:55.919Z,2.20
2018-12-09T13:19:24.024Z,2.60
2018-12-09T13:21:57.945Z,2.90
2018-12-09T13:24:26.075Z,2.33
2018-12-09T13:26:55.395Z,2.45
2018-12-09T13:29:24.410Z,2.17
2018-12-09T13:31:54.192Z,2.83
2018-12-09T13:34:30.422Z,2.53
2018-12-09T13:37:04.960Z,2.42
2018-12-09T13:39:34.368Z,2.60
2018-12-09T13:42:02.542Z,2.58
2018-12-09T13:44:31.057Z,2.80
2018-12-09T13:46:59.364Z,2.80
2018-12-09T13:49:30.351Z,2.80
2018-12-09T13:51:59.898Z,3.37
2018-12-09T13:54:28.026Z,2.67
2018-12-09T13:56:58.845Z,2.20
2018-12-09T13:59:27.607Z,2.40
2018-12-09T14:01:55.916Z,2.40
2018-12-09T14:04:31.959Z,2.67
2018-12-09T14:07:03.510Z,2.92
2018-12-09T14:09:35.179Z,2.95
2018-12-09T14:12:03.523Z,2.55
2018-12-09T14:14:34.075Z,2.50
2018-12-09T14:17:02.405Z,2.70
2018-12-09T14:19:30.928Z,2.90
2018-12-09T14:21:59.223Z,2.87
2018-12-09T14:24:30.278Z,2.72
2018-12-09T14:26:58.447Z,2.70
2018-12-09T14:29:33.383Z,3.57
2018-12-09T14:32:01.988Z,3.30
2018-12-09T14:34:30.235Z,4.60
2018-12-09T14:36:58.409Z,4.10
2018-12-09T14:39:26.558Z,3.83
2018-12-09T14:41:54.824Z,4.47
2018-12-09T14:44:23.211Z,4.17
2018-12-09T14:46:51.421Z,4.33
2018-12-09T14:49:19.589Z,3.87
2018-12-09T14:51:49.777Z,3.97
2018-12-09T14:54:18.070Z,3.60
2018-12-09T14:56:46.241Z,3.70
2018-12-09T14:59:17.612Z,3.07
2018-12-09T15:01:45.776Z,3.57
2018-12-09T15:04:14.030Z,3.93
2018-12-09T15:06:42.242Z,3.00
2018-12-09T15:09:12.379Z,4.03
2018-12-09T15:11:41.230Z,4.07
2018-12-09T15:14:10.332Z,4.47
2018-12-09T15:16:38.526Z,3.40
2018-12-09T15:19:06.792Z,2.43
2018-12-09T15:21:34.971Z,2.57
2018-12-09T15:24:03.125Z,2.40
2018-12-09T15:26:31.361Z,3.00
2018-12-09T15:29:25.100Z,3.30
2018-12-09T15:31:53.373Z,3.40
2018-12-09T15:34:21.821Z,2.60
2018-12-09T15:36:49.901Z,2.80
2018-12-09T15:39:19.176Z,3.00
2018-12-09T15:41:47.401Z,2.60
2018-12-09T15:44:15.534Z,2.10
2018-12-09T15:46:43.690Z,2.00
2018-12-09T15:49:11.840Z,2.25
2018-12-09T15:51:40.911Z,2.97
2018-12-09T15:54:09.089Z,2.60
2018-12-09T15:56:37.285Z,2.50
2018-12-09T15:59:12.219Z,2.23
2018-12-09T16:01:40.386Z,2.20
2018-12-09T16:04:08.671Z,1.70
2018-12-09T16:06:36.879Z,2.47
2018-12-09T16:12:00.823Z,2.20
2018-12-09T16:14:28.910Z,1.90
2018-12-09T16:16:56.998Z,2.13
2018-12-09T16:19:25.094Z,1.87
2018-12-09T16:21:53.200Z,1.63
2018-12-09T16:24:21.293Z,1.53
2018-12-09T16:26:50.486Z,2.07
2018-12-09T16:29:18.537Z,3.97
2018-12-09T16:31:46.670Z,2.43
2018-12-09T16:34:14.768Z,2.47
2018-12-09T16:36:42.871Z,2.92
2018-12-09T16:39:10.963Z,2.13
2018-12-09T16:41:39.012Z,2.13
2018-12-09T16:44:07.108Z,2.53
2018-12-09T16:46:35.597Z,2.80
2018-12-09T16:49:03.722Z,2.30
2018-12-09T16:51:31.841Z,2.83
2018-12-09T16:53:59.904Z,2.57
2018-12-09T16:56:28.020Z,2.58
2018-12-09T16:58:56.166Z,2.27
2018-12-09T17:01:24.228Z,2.57
2018-12-09T17:03:52.307Z,3.43
2018-12-09T17:06:20.361Z,3.60
2018-12-09T17:08:48.427Z,3.50
2018-12-09T17:11:17.122Z,3.30
2018-12-09T17:13:45.174Z,2.87
2018-12-09T17:16:13.246Z,3.27
2018-12-09T17:18:41.311Z,3.27
2018-12-09T17:21:09.379Z,2.80
2018-12-09T17:23:37.443Z,2.37
2018-12-09T17:26:05.547Z,2.10
2018-12-09T17:28:33.610Z,2.40
2018-12-09T17:31:01.654Z,2.97
2018-12-09T17:33:29.730Z,2.72
2018-12-09T17:35:57.860Z,2.80
2018-12-09T17:38:25.936Z,3.57
2018-12-09T17:40:55.157Z,2.80
2018-12-09T17:43:23.324Z,2.90
2018-12-09T17:45:51.389Z,3.37
2018-12-09T17:48:19.474Z,3.43
2018-12-09T17:50:47.626Z,2.80
2018-12-09T17:53:15.684Z,2.53
2018-12-09T17:55:43.775Z,3.17
2018-12-09T17:58:11.824Z,2.40
2018-12-09T18:00:39.950Z,2.73
2018-12-09T18:03:08.040Z,3.05
2018-12-09T18:05:36.123Z,3.20
2018-12-09T18:08:04.178Z,3.42
2018-12-09T18:10:32.266Z,3.90
2018-12-09T18:13:00.392Z,4.25
2018-12-09T18:15:28.542Z,3.80
2018-12-09T18:17:56.635Z,3.87
2018-12-09T18:20:24.747Z,3.80
2018-12-09T18:22:52.795Z,2.90
2018-12-09T18:25:20.865Z,3.90
2018-12-09T18:27:48.948Z,3.67
2018-12-09T18:30:17.034Z,6.93
2018-12-09T18:32:45.251Z,3.90
2018-12-09T18:35:13.368Z,6.13
2018-12-09T18:37:54.295Z,4.70
2018-12-09T18:40:22.716Z,4.27
2018-12-09T18:42:50.817Z,5.62
2018-12-09T18:45:20.026Z,5.22
2018-12-09T18:47:48.214Z,4.77
2018-12-09T18:50:18.385Z,3.97
2018-12-09T18:52:47.157Z,6.17
2018-12-09T18:55:15.314Z,5.57
2018-12-09T18:57:43.383Z,7.37
2018-12-09T19:00:12.775Z,7.57
2018-12-09T19:02:41.026Z,4.50
2018-12-09T19:05:09.340Z,6.07
2018-12-09T19:07:38.932Z,4.07
2018-12-09T19:10:07.146Z,4.03
2018-12-09T19:12:53.410Z,4.37
2018-12-09T19:15:22.346Z,3.55
2018-12-09T19:17:50.719Z,3.63
2018-12-09T19:20:18.968Z,3.67
2018-12-09T19:22:47.783Z,4.07
2018-12-09T19:25:15.955Z,3.90
2018-12-09T19:27:44.054Z,3.70
2018-12-09T19:30:13.090Z,3.43
2018-12-09T19:32:41.603Z,2.60
2018-12-09T19:35:09.719Z,2.93
2018-12-09T19:37:37.901Z,3.23
2018-12-09T19:40:06.179Z,3.03
2018-12-09T19:42:34.741Z,2.50
2018-12-09T19:45:03.051Z,3.03
2018-12-09T19:47:31.167Z,2.80
2018-12-09T19:49:59.320Z,3.20
2018-12-09T19:52:30.383Z,2.73
2018-12-09T19:54:59.400Z,2.25
2018-12-09T19:57:27.731Z,2.97
2018-12-09T19:59:56.135Z,2.37
2018-12-09T20:02:24.259Z,2.20
2018-12-09T20:04:52.351Z,2.40
2018-12-09T20:07:20.474Z,2.33
2018-12-09T20:09:49.357Z,2.37
2018-12-09T20:12:18.572Z,2.83
2018-12-09T20:14:48.454Z,2.97
2018-12-09T20:17:16.825Z,2.87
2018-12-09T20:19:44.951Z,2.43
2018-12-09T20:22:13.126Z,2.13
2018-12-09T20:24:45.123Z,2.40
2018-12-09T20:27:13.220Z,2.57
2018-12-09T20:29:46.431Z,1.72
2018-12-09T20:32:18.383Z,1.87
2018-12-09T20:34:47.939Z,2.07
2018-12-09T20:37:20.976Z,2.07
2018-12-09T20:39:50.017Z,2.23
2018-12-09T20:42:19.065Z,1.73
2018-12-09T20:44:47.800Z,1.40
2018-12-09T20:47:16.045Z,2.03
2018-12-09T20:49:44.193Z,2.30
2018-12-09T20:52:12.424Z,2.90
2018-12-09T20:54:42.060Z,2.52
2018-12-09T20:57:10.172Z,2.27
2018-12-09T20:59:38.276Z,2.77
2018-12-09T21:02:06.399Z,3.07
2018-12-09T21:04:35.375Z,3.00
2018-12-09T21:07:03.639Z,3.08
2018-12-09T21:09:33.343Z,3.40
2018-12-09T21:12:02.830Z,2.50
2018-12-09T21:14:32.353Z,2.57
2018-12-09T21:17:00.558Z,2.23
2018-12-09T21:19:30.166Z,2.30
2018-12-09T21:21:58.375Z,2.07
2018-12-09T21:24:26.580Z,1.93
2018-12-09T21:26:54.684Z,2.47
2018-12-09T21:29:22.835Z,2.30
2018-12-09T21:31:51.727Z,3.50
2018-12-09T21:37:02.551Z,2.40
2018-12-09T21:39:30.607Z,2.45
2018-12-09T21:41:58.659Z,2.50
2018-12-09T21:44:26.748Z,2.47
2018-12-09T21:46:54.878Z,2.00
2018-12-09T21:49:22.935Z,2.60
2018-12-09T21:51:50.982Z,2.30
2018-12-09T21:54:19.047Z,2.60
2018-12-09T21:56:47.131Z,2.17
2018-12-09T21:59:15.302Z,2.00
2018-12-09T22:01:43.380Z,2.30
2018-12-09T22:04:11.427Z,1.77
2018-12-09T22:06:39.518Z,2.50
2018-12-09T22:09:07.632Z,1.67
2018-12-09T22:11:35.751Z,1.83
2018-12-09T22:14:03.833Z,2.27
2018-12-09T22:16:31.890Z,2.00
2018-12-09T22:19:00.072Z,2.50
2018-12-09T22:21:28.123Z,2.30
2018-12-09T22:23:56.182Z,2.20
2018-12-09T22:26:24.284Z,2.03
2018-12-09T22:28:52.426Z,2.17
2018-12-09T22:31:20.542Z,1.93
2018-12-09T22:33:48.602Z,2.23
2018-12-09T22:36:16.719Z,2.80
2018-12-09T22:38:44.766Z,1.90
2018-12-09T22:41:12.818Z,1.80
2018-12-09T22:43:40.888Z,1.80
2018-12-09T22:46:09.061Z,1.73
2018-12-09T22:48:37.154Z,2.17
2018-12-09T22:51:05.247Z,2.37
2018-12-09T22:53:33.354Z,1.90
2018-12-09T22:56:01.473Z,1.87
2018-12-09T22:58:29.527Z,2.00
2018-12-09T23:01:03.223Z,2.13
2018-12-09T23:03:31.512Z,2.23
2018-12-09T23:05:59.633Z,1.97
2018-12-09T23:08:27.729Z,1.65
2018-12-09T23:10:55.791Z,2.17
2018-12-09T23:13:23.842Z,2.15
2018-12-09T23:15:51.951Z,2.00
2018-12-09T23:18:20.070Z,2.20
2018-12-09T23:20:48.139Z,2.27
2018-12-09T23:23:16.347Z,2.70
2018-12-09T23:25:44.531Z,2.47
2018-12-09T23:28:12.583Z,1.97
2018-12-09T23:30:40.747Z,2.10
2018-12-09T23:33:08.834Z,2.07
2018-12-09T23:35:37.000Z,2.33
2018-12-09T23:38:05.114Z,1.80
2018-12-09T23:40:33.254Z,1.70
2018-12-09T23:43:01.313Z,2.27
2018-12-09T23:45:29.390Z,1.90
2018-12-09T23:47:57.487Z,2.70
2018-12-09T23:50:25.537Z,1.63
2018-12-09T23:52:53.590Z,2.03
2018-12-09T23:55:21.644Z,1.90
2018-12-09T23:57:49.698Z,1.80
